sensor_id;sensor_type;location;lat;lon;timestamp;P1;durP1;ratioP1;P2;durP2;ratioP2
16478;SDS011;8350;52.316;10.530;2023-09-30T00:00:12;11.77;;;4.95;;
16478;SDS011;8350;52.316;10.530;2023-09-30T00:02:41;12.05;;;5.05;;
16478;SDS011;8350;52.316;10.530;2023-09-30T00:05:08;11.50;;;4.22;;
16478;SDS011;8350;52.316;10.530;2023-09-30T00:07:35;13.77;;;4.78;;
16478;SDS011;8350;52.316;10.530;2023-09-30T00:10:03;14.02;;;4.57;;
16478;SDS011;8350;52.316;10.530;2023-09-30T00:12:30;9.38;;;4.25;;
16478;SDS011;8350;52.316;10.530;2023-09-30T00:14:57;9.85;;;4.95;;
16478;SDS011;8350;52.316;10.530;2023-09-30T00:17:24;11.43;;;4.82;;
16478;SDS011;8350;52.316;10.530;2023-09-30T00:19:52;11.80;;;5.25;;
16478;SDS011;8350;52.316;10.530;2023-09-30T00:22:19;14.35;;;4.85;;
16478;SDS011;8350;52.316;10.530;2023-09-30T00:24:46;11.23;;;5.07;;
16478;SDS011;8350;52.316;10.530;2023-09-30T00:27:13;10.55;;;4.95;;
16478;SDS011;8350;52.316;10.530;2023-09-30T00:29:41;13.25;;;4.75;;
16478;SDS011;8350;52.316;10.530;2023-09-30T00:32:08;7.35;;;4.22;;
16478;SDS011;8350;52.316;10.530;2023-09-30T00:34:35;11.63;;;4.78;;
16478;SDS011;8350;52.316;10.530;2023-09-30T00:37:03;9.70;;;4.30;;
16478;SDS011;8350;52.316;10.530;2023-09-30T00:39:32;12.20;;;5.03;;
16478;SDS011;8350;52.316;10.530;2023-09-30T00:41:59;9.45;;;4.68;;
16478;SDS011;8350;52.316;10.530;2023-09-30T00:44:26;13.90;;;4.57;;
16478;SDS011;8350;52.316;10.530;2023-09-30T00:46:53;10.32;;;4.57;;
16478;SDS011;8350;52.316;10.530;2023-09-30T00:49:21;13.25;;;5.85;;
16478;SDS011;8350;52.316;10.530;2023-09-30T00:51:49;13.27;;;5.25;;
16478;SDS011;8350;52.316;10.530;2023-09-30T00:54:18;12.38;;;4.72;;
16478;SDS011;8350;52.316;10.530;2023-09-30T00:56:46;14.45;;;5.18;;
16478;SDS011;8350;52.316;10.530;2023-09-30T00:59:14;9.90;;;4.63;;
16478;SDS011;8350;52.316;10.530;2023-09-30T01:01:41;8.18;;;4.90;;
16478;SDS011;8350;52.316;10.530;2023-09-30T01:04:10;13.20;;;5.50;;
16478;SDS011;8350;52.316;10.530;2023-09-30T01:06:37;13.60;;;4.72;;
16478;SDS011;8350;52.316;10.530;2023-09-30T01:09:06;10.65;;;5.35;;
16478;SDS011;8350;52.316;10.530;2023-09-30T01:11:35;10.98;;;4.35;;
16478;SDS011;8350;52.316;10.530;2023-09-30T01:14:02;11.05;;;4.53;;
16478;SDS011;8350;52.316;10.530;2023-09-30T01:16:29;11.80;;;5.00;;
16478;SDS011;8350;52.316;10.530;2023-09-30T01:18:56;12.45;;;4.90;;
16478;SDS011;8350;52.316;10.530;2023-09-30T01:21:23;14.57;;;4.88;;
16478;SDS011;8350;52.316;10.530;2023-09-30T01:23:54;11.02;;;4.85;;
16478;SDS011;8350;52.316;10.530;2023-09-30T01:26:21;9.55;;;4.68;;
16478;SDS011;8350;52.316;10.530;2023-09-30T01:28:48;10.85;;;4.63;;
16478;SDS011;8350;52.316;10.530;2023-09-30T01:31:15;13.23;;;5.25;;
16478;SDS011;8350;52.316;10.530;2023-09-30T01:33:55;10.80;;;5.57;;
16478;SDS011;8350;52.316;10.530;2023-09-30T01:36:22;16.58;;;4.75;;
16478;SDS011;8350;52.316;10.530;2023-09-30T01:38:49;12.80;;;4.47;;
16478;SDS011;8350;52.316;10.530;2023-09-30T01:41:17;13.15;;;5.13;;
16478;SDS011;8350;52.316;10.530;2023-09-30T01:43:44;13.80;;;4.82;;
16478;SDS011;8350;52.316;10.530;2023-09-30T01:46:12;12.40;;;4.40;;
16478;SDS011;8350;52.316;10.530;2023-09-30T01:48:39;8.85;;;4.55;;
16478;SDS011;8350;52.316;10.530;2023-09-30T01:51:06;11.02;;;4.80;;
16478;SDS011;8350;52.316;10.530;2023-09-30T01:53:33;12.43;;;4.70;;
16478;SDS011;8350;52.316;10.530;2023-09-30T01:56:00;8.45;;;4.25;;
16478;SDS011;8350;52.316;10.530;2023-09-30T01:58:28;15.07;;;4.65;;
16478;SDS011;8350;52.316;10.530;2023-09-30T02:01:01;10.30;;;4.40;;
16478;SDS011;8350;52.316;10.530;2023-09-30T02:03:28;12.70;;;4.95;;
16478;SDS011;8350;52.316;10.530;2023-09-30T02:05:56;13.43;;;4.90;;
16478;SDS011;8350;52.316;10.530;2023-09-30T02:08:23;13.05;;;5.15;;
16478;SDS011;8350;52.316;10.530;2023-09-30T02:10:50;9.25;;;4.65;;
16478;SDS011;8350;52.316;10.530;2023-09-30T02:13:17;10.73;;;4.22;;
16478;SDS011;8350;52.316;10.530;2023-09-30T02:15:46;10.95;;;4.63;;
16478;SDS011;8350;52.316;10.530;2023-09-30T02:18:13;8.68;;;3.80;;
16478;SDS011;8350;52.316;10.530;2023-09-30T02:20:40;12.65;;;5.20;;
16478;SDS011;8350;52.316;10.530;2023-09-30T02:23:08;10.30;;;4.10;;
16478;SDS011;8350;52.316;10.530;2023-09-30T02:25:35;13.25;;;4.32;;
16478;SDS011;8350;52.316;10.530;2023-09-30T02:28:03;10.63;;;4.88;;
16478;SDS011;8350;52.316;10.530;2023-09-30T02:30:30;14.57;;;5.43;;
16478;SDS011;8350;52.316;10.530;2023-09-30T02:32:58;18.85;;;5.53;;
16478;SDS011;8350;52.316;10.530;2023-09-30T02:35:26;14.00;;;5.05;;
16478;SDS011;8350;52.316;10.530;2023-09-30T02:37:53;11.93;;;5.07;;
16478;SDS011;8350;52.316;10.530;2023-09-30T02:40:25;18.13;;;5.40;;
16478;SDS011;8350;52.316;10.530;2023-09-30T02:42:52;11.82;;;4.68;;
16478;SDS011;8350;52.316;10.530;2023-09-30T02:45:19;13.63;;;4.78;;
16478;SDS011;8350;52.316;10.530;2023-09-30T02:47:47;8.68;;;3.72;;
16478;SDS011;8350;52.316;10.530;2023-09-30T02:50:15;12.38;;;4.25;;
16478;SDS011;8350;52.316;10.530;2023-09-30T02:52:42;11.82;;;5.20;;
16478;SDS011;8350;52.316;10.530;2023-09-30T02:55:09;13.27;;;5.07;;
16478;SDS011;8350;52.316;10.530;2023-09-30T02:57:37;10.25;;;4.55;;
16478;SDS011;8350;52.316;10.530;2023-09-30T03:00:10;14.65;;;4.80;;
16478;SDS011;8350;52.316;10.530;2023-09-30T03:02:48;11.73;;;4.47;;
16478;SDS011;8350;52.316;10.530;2023-09-30T03:05:17;11.48;;;4.55;;
16478;SDS011;8350;52.316;10.530;2023-09-30T03:07:45;11.93;;;4.72;;
16478;SDS011;8350;52.316;10.530;2023-09-30T03:10:15;11.88;;;4.40;;
16478;SDS011;8350;52.316;10.530;2023-09-30T03:12:45;8.85;;;4.50;;
16478;SDS011;8350;52.316;10.530;2023-09-30T03:15:12;9.40;;;4.60;;
16478;SDS011;8350;52.316;10.530;2023-09-30T03:17:42;11.45;;;4.10;;
16478;SDS011;8350;52.316;10.530;2023-09-30T03:20:10;15.35;;;5.68;;
16478;SDS011;8350;52.316;10.530;2023-09-30T03:22:41;12.50;;;5.22;;
16478;SDS011;8350;52.316;10.530;2023-09-30T03:25:09;12.85;;;5.43;;
16478;SDS011;8350;52.316;10.530;2023-09-30T03:27:37;18.98;;;5.30;;
16478;SDS011;8350;52.316;10.530;2023-09-30T03:30:04;13.00;;;4.70;;
16478;SDS011;8350;52.316;10.530;2023-09-30T03:32:32;13.02;;;4.68;;
16478;SDS011;8350;52.316;10.530;2023-09-30T03:34:59;14.55;;;4.88;;
16478;SDS011;8350;52.316;10.530;2023-09-30T03:37:26;12.30;;;4.90;;
16478;SDS011;8350;52.316;10.530;2023-09-30T03:39:54;10.77;;;4.85;;
16478;SDS011;8350;52.316;10.530;2023-09-30T03:42:22;12.50;;;4.65;;
16478;SDS011;8350;52.316;10.530;2023-09-30T03:44:53;11.90;;;4.35;;
16478;SDS011;8350;52.316;10.530;2023-09-30T03:47:20;14.18;;;5.32;;
16478;SDS011;8350;52.316;10.530;2023-09-30T03:49:47;12.60;;;5.30;;
16478;SDS011;8350;52.316;10.530;2023-09-30T03:52:14;13.40;;;4.82;;
16478;SDS011;8350;52.316;10.530;2023-09-30T03:54:41;14.30;;;5.18;;
16478;SDS011;8350;52.316;10.530;2023-09-30T03:57:09;10.95;;;4.38;;
16478;SDS011;8350;52.316;10.530;2023-09-30T03:59:37;14.35;;;4.45;;
16478;SDS011;8350;52.316;10.530;2023-09-30T04:02:04;12.75;;;5.30;;
16478;SDS011;8350;52.316;10.530;2023-09-30T04:04:33;15.40;;;5.13;;
16478;SDS011;8350;52.316;10.530;2023-09-30T04:07:02;16.50;;;5.90;;
16478;SDS011;8350;52.316;10.530;2023-09-30T04:09:30;19.35;;;5.80;;
16478;SDS011;8350;52.316;10.530;2023-09-30T04:11:57;15.85;;;5.53;;
16478;SDS011;8350;52.316;10.530;2023-09-30T04:14:26;12.85;;;5.05;;
16478;SDS011;8350;52.316;10.530;2023-09-30T04:16:54;14.38;;;5.82;;
16478;SDS011;8350;52.316;10.530;2023-09-30T04:19:21;13.23;;;5.15;;
16478;SDS011;8350;52.316;10.530;2023-09-30T04:21:47;11.93;;;5.30;;
16478;SDS011;8350;52.316;10.530;2023-09-30T04:24:15;11.25;;;5.15;;
16478;SDS011;8350;52.316;10.530;2023-09-30T04:26:44;15.57;;;6.00;;
16478;SDS011;8350;52.316;10.530;2023-09-30T04:29:11;11.32;;;4.78;;
16478;SDS011;8350;52.316;10.530;2023-09-30T04:31:40;11.82;;;4.82;;
16478;SDS011;8350;52.316;10.530;2023-09-30T04:34:07;13.77;;;5.57;;
16478;SDS011;8350;52.316;10.530;2023-09-30T04:36:34;13.05;;;5.38;;
16478;SDS011;8350;52.316;10.530;2023-09-30T04:39:01;12.88;;;5.43;;
16478;SDS011;8350;52.316;10.530;2023-09-30T04:41:30;16.13;;;6.47;;
16478;SDS011;8350;52.316;10.530;2023-09-30T04:43:57;10.35;;;5.10;;
16478;SDS011;8350;52.316;10.530;2023-09-30T04:46:24;13.68;;;6.32;;
16478;SDS011;8350;52.316;10.530;2023-09-30T04:48:52;12.50;;;6.55;;
16478;SDS011;8350;52.316;10.530;2023-09-30T04:51:19;13.27;;;5.53;;
16478;SDS011;8350;52.316;10.530;2023-09-30T04:53:46;15.00;;;5.93;;
16478;SDS011;8350;52.316;10.530;2023-09-30T04:56:13;14.00;;;5.72;;
16478;SDS011;8350;52.316;10.530;2023-09-30T04:58:40;13.68;;;6.28;;
16478;SDS011;8350;52.316;10.530;2023-09-30T05:01:07;15.38;;;6.00;;
16478;SDS011;8350;52.316;10.530;2023-09-30T05:03:37;20.02;;;6.75;;
16478;SDS011;8350;52.316;10.530;2023-09-30T05:06:05;13.00;;;5.90;;
16478;SDS011;8350;52.316;10.530;2023-09-30T05:08:33;17.05;;;6.22;;
16478;SDS011;8350;52.316;10.530;2023-09-30T05:11:00;11.38;;;5.55;;
16478;SDS011;8350;52.316;10.530;2023-09-30T05:13:27;14.75;;;6.53;;
16478;SDS011;8350;52.316;10.530;2023-09-30T05:15:54;12.07;;;6.20;;
16478;SDS011;8350;52.316;10.530;2023-09-30T05:18:21;14.02;;;6.28;;
16478;SDS011;8350;52.316;10.530;2023-09-30T05:20:49;17.45;;;6.40;;
16478;SDS011;8350;52.316;10.530;2023-09-30T05:23:17;12.73;;;6.43;;
16478;SDS011;8350;52.316;10.530;2023-09-30T05:25:44;14.30;;;6.25;;
16478;SDS011;8350;52.316;10.530;2023-09-30T05:28:11;12.52;;;6.28;;
16478;SDS011;8350;52.316;10.530;2023-09-30T05:30:41;16.42;;;6.55;;
16478;SDS011;8350;52.316;10.530;2023-09-30T05:33:08;22.15;;;6.93;;
16478;SDS011;8350;52.316;10.530;2023-09-30T05:35:39;18.15;;;6.88;;
16478;SDS011;8350;52.316;10.530;2023-09-30T05:38:06;16.85;;;6.55;;
16478;SDS011;8350;52.316;10.530;2023-09-30T05:40:35;12.70;;;6.32;;
16478;SDS011;8350;52.316;10.530;2023-09-30T05:43:02;16.75;;;6.40;;
16478;SDS011;8350;52.316;10.530;2023-09-30T05:45:31;19.08;;;7.35;;
16478;SDS011;8350;52.316;10.530;2023-09-30T05:48:02;17.05;;;6.60;;
16478;SDS011;8350;52.316;10.530;2023-09-30T05:50:31;15.73;;;5.47;;
16478;SDS011;8350;52.316;10.530;2023-09-30T05:52:59;12.98;;;6.53;;
16478;SDS011;8350;52.316;10.530;2023-09-30T05:55:26;17.52;;;6.68;;
16478;SDS011;8350;52.316;10.530;2023-09-30T05:57:56;15.88;;;7.30;;
16478;SDS011;8350;52.316;10.530;2023-09-30T06:00:26;13.63;;;7.13;;
16478;SDS011;8350;52.316;10.530;2023-09-30T06:02:55;13.50;;;6.55;;
16478;SDS011;8350;52.316;10.530;2023-09-30T06:05:23;17.35;;;6.80;;
16478;SDS011;8350;52.316;10.530;2023-09-30T06:07:51;16.27;;;6.10;;
16478;SDS011;8350;52.316;10.530;2023-09-30T06:10:19;12.07;;;5.97;;
16478;SDS011;8350;52.316;10.530;2023-09-30T06:12:51;15.00;;;6.15;;
16478;SDS011;8350;52.316;10.530;2023-09-30T06:15:21;17.23;;;6.25;;
16478;SDS011;8350;52.316;10.530;2023-09-30T06:17:51;11.65;;;6.28;;
16478;SDS011;8350;52.316;10.530;2023-09-30T06:20:18;13.77;;;6.57;;
16478;SDS011;8350;52.316;10.530;2023-09-30T06:22:47;18.05;;;6.00;;
16478;SDS011;8350;52.316;10.530;2023-09-30T06:25:15;11.07;;;5.72;;
16478;SDS011;8350;52.316;10.530;2023-09-30T06:27:43;12.80;;;5.25;;
16478;SDS011;8350;52.316;10.530;2023-09-30T06:30:10;11.13;;;5.20;;
16478;SDS011;8350;52.316;10.530;2023-09-30T06:32:39;12.13;;;5.00;;
16478;SDS011;8350;52.316;10.530;2023-09-30T06:35:07;10.02;;;5.55;;
16478;SDS011;8350;52.316;10.530;2023-09-30T06:37:37;14.27;;;5.35;;
16478;SDS011;8350;52.316;10.530;2023-09-30T06:40:05;10.13;;;4.60;;
16478;SDS011;8350;52.316;10.530;2023-09-30T06:42:33;12.20;;;4.93;;
16478;SDS011;8350;52.316;10.530;2023-09-30T06:45:01;12.02;;;4.82;;
16478;SDS011;8350;52.316;10.530;2023-09-30T06:47:30;12.77;;;5.53;;
16478;SDS011;8350;52.316;10.530;2023-09-30T06:50:00;10.70;;;4.25;;
16478;SDS011;8350;52.316;10.530;2023-09-30T06:52:32;9.27;;;4.13;;
16478;SDS011;8350;52.316;10.530;2023-09-30T06:55:00;10.55;;;4.25;;
16478;SDS011;8350;52.316;10.530;2023-09-30T06:57:29;7.97;;;4.28;;
16478;SDS011;8350;52.316;10.530;2023-09-30T06:59:57;11.65;;;4.38;;
16478;SDS011;8350;52.316;10.530;2023-09-30T07:02:25;10.85;;;4.45;;
16478;SDS011;8350;52.316;10.530;2023-09-30T07:04:54;11.43;;;4.80;;
16478;SDS011;8350;52.316;10.530;2023-09-30T07:07:24;16.42;;;4.65;;
16478;SDS011;8350;52.316;10.530;2023-09-30T07:09:53;10.70;;;5.28;;
16478;SDS011;8350;52.316;10.530;2023-09-30T07:12:21;12.13;;;4.18;;
16478;SDS011;8350;52.316;10.530;2023-09-30T07:14:48;13.52;;;4.55;;
16478;SDS011;8350;52.316;10.530;2023-09-30T07:17:15;13.55;;;4.57;;
16478;SDS011;8350;52.316;10.530;2023-09-30T07:19:42;9.18;;;4.15;;
16478;SDS011;8350;52.316;10.530;2023-09-30T07:22:09;12.73;;;4.22;;
16478;SDS011;8350;52.316;10.530;2023-09-30T07:24:38;13.05;;;4.60;;
16478;SDS011;8350;52.316;10.530;2023-09-30T07:27:05;12.40;;;4.75;;
16478;SDS011;8350;52.316;10.530;2023-09-30T07:29:34;12.35;;;4.35;;
16478;SDS011;8350;52.316;10.530;2023-09-30T07:32:01;11.35;;;3.92;;
16478;SDS011;8350;52.316;10.530;2023-09-30T07:34:28;8.63;;;4.18;;
16478;SDS011;8350;52.316;10.530;2023-09-30T07:36:55;13.23;;;4.65;;
16478;SDS011;8350;52.316;10.530;2023-09-30T07:39:22;11.32;;;4.50;;
16478;SDS011;8350;52.316;10.530;2023-09-30T07:41:51;11.77;;;4.75;;
16478;SDS011;8350;52.316;10.530;2023-09-30T07:44:17;9.73;;;4.05;;
16478;SDS011;8350;52.316;10.530;2023-09-30T07:46:45;14.50;;;4.57;;
16478;SDS011;8350;52.316;10.530;2023-09-30T07:49:13;9.65;;;4.15;;
16478;SDS011;8350;52.316;10.530;2023-09-30T07:51:41;10.93;;;4.25;;
16478;SDS011;8350;52.316;10.530;2023-09-30T07:54:08;7.50;;;3.38;;
16478;SDS011;8350;52.316;10.530;2023-09-30T07:56:35;9.75;;;3.83;;
16478;SDS011;8350;52.316;10.530;2023-09-30T07:59:03;11.20;;;3.85;;
16478;SDS011;8350;52.316;10.530;2023-09-30T08:01:31;9.32;;;3.70;;
16478;SDS011;8350;52.316;10.530;2023-09-30T08:03:58;14.88;;;4.32;;
16478;SDS011;8350;52.316;10.530;2023-09-30T08:06:25;12.68;;;4.13;;
16478;SDS011;8350;52.316;10.530;2023-09-30T08:08:52;13.68;;;3.90;;
16478;SDS011;8350;52.316;10.530;2023-09-30T08:11:20;10.27;;;4.32;;
16478;SDS011;8350;52.316;10.530;2023-09-30T08:13:47;13.38;;;3.85;;
16478;SDS011;8350;52.316;10.530;2023-09-30T08:16:15;13.50;;;5.22;;
16478;SDS011;8350;52.316;10.530;2023-09-30T08:18:43;11.10;;;4.00;;
16478;SDS011;8350;52.316;10.530;2023-09-30T08:21:10;10.20;;;4.10;;
16478;SDS011;8350;52.316;10.530;2023-09-30T08:23:37;13.77;;;3.67;;
16478;SDS011;8350;52.316;10.530;2023-09-30T08:26:04;7.32;;;3.47;;
16478;SDS011;8350;52.316;10.530;2023-09-30T08:28:31;12.50;;;3.67;;
16478;SDS011;8350;52.316;10.530;2023-09-30T08:31:01;10.88;;;3.55;;
16478;SDS011;8350;52.316;10.530;2023-09-30T08:33:31;7.22;;;3.20;;
16478;SDS011;8350;52.316;10.530;2023-09-30T08:36:01;8.48;;;3.38;;
16478;SDS011;8350;52.316;10.530;2023-09-30T08:38:32;11.65;;;4.32;;
16478;SDS011;8350;52.316;10.530;2023-09-30T08:41:00;8.45;;;3.70;;
16478;SDS011;8350;52.316;10.530;2023-09-30T08:43:28;9.38;;;3.20;;
16478;SDS011;8350;52.316;10.530;2023-09-30T08:45:57;12.65;;;3.75;;
16478;SDS011;8350;52.316;10.530;2023-09-30T08:48:25;11.48;;;3.78;;
16478;SDS011;8350;52.316;10.530;2023-09-30T08:50:55;8.55;;;3.05;;
16478;SDS011;8350;52.316;10.530;2023-09-30T08:53:22;9.68;;;3.67;;
16478;SDS011;8350;52.316;10.530;2023-09-30T08:55:50;7.72;;;3.03;;
16478;SDS011;8350;52.316;10.530;2023-09-30T08:58:20;6.85;;;3.45;;
16478;SDS011;8350;52.316;10.530;2023-09-30T09:00:50;12.98;;;3.05;;
16478;SDS011;8350;52.316;10.530;2023-09-30T09:03:18;9.90;;;3.83;;
16478;SDS011;8350;52.316;10.530;2023-09-30T09:05:45;10.13;;;3.15;;
16478;SDS011;8350;52.316;10.530;2023-09-30T09:08:14;11.82;;;3.97;;
16478;SDS011;8350;52.316;10.530;2023-09-30T09:10:53;8.57;;;2.85;;
16478;SDS011;8350;52.316;10.530;2023-09-30T09:13:21;8.57;;;3.40;;
16478;SDS011;8350;52.316;10.530;2023-09-30T09:15:48;8.40;;;3.17;;
16478;SDS011;8350;52.316;10.530;2023-09-30T09:18:20;10.80;;;3.28;;
16478;SDS011;8350;52.316;10.530;2023-09-30T09:21:10;10.48;;;3.05;;
16478;SDS011;8350;52.316;10.530;2023-09-30T09:23:43;11.20;;;3.70;;
16478;SDS011;8350;52.316;10.530;2023-09-30T09:26:11;8.80;;;3.08;;
16478;SDS011;8350;52.316;10.530;2023-09-30T09:28:39;12.57;;;3.55;;
16478;SDS011;8350;52.316;10.530;2023-09-30T09:31:20;7.43;;;2.50;;
16478;SDS011;8350;52.316;10.530;2023-09-30T09:33:48;8.93;;;2.80;;
16478;SDS011;8350;52.316;10.530;2023-09-30T09:36:16;8.60;;;3.17;;
16478;SDS011;8350;52.316;10.530;2023-09-30T09:38:46;6.53;;;2.67;;
16478;SDS011;8350;52.316;10.530;2023-09-30T09:41:15;7.30;;;3.10;;
16478;SDS011;8350;52.316;10.530;2023-09-30T09:43:42;9.50;;;2.72;;
16478;SDS011;8350;52.316;10.530;2023-09-30T09:46:10;8.88;;;2.67;;
16478;SDS011;8350;52.316;10.530;2023-09-30T09:48:39;8.90;;;3.13;;
16478;SDS011;8350;52.316;10.530;2023-09-30T09:51:09;7.65;;;2.72;;
16478;SDS011;8350;52.316;10.530;2023-09-30T09:53:38;9.57;;;3.53;;
16478;SDS011;8350;52.316;10.530;2023-09-30T09:56:08;12.50;;;3.22;;
16478;SDS011;8350;52.316;10.530;2023-09-30T09:58:38;10.70;;;2.92;;
16478;SDS011;8350;52.316;10.530;2023-09-30T10:01:07;7.45;;;2.63;;
16478;SDS011;8350;52.316;10.530;2023-09-30T10:03:36;7.18;;;2.70;;
16478;SDS011;8350;52.316;10.530;2023-09-30T10:06:04;7.75;;;3.03;;
16478;SDS011;8350;52.316;10.530;2023-09-30T10:08:35;9.15;;;3.08;;
16478;SDS011;8350;52.316;10.530;2023-09-30T10:11:05;7.60;;;2.67;;
16478;SDS011;8350;52.316;10.530;2023-09-30T10:19:15;6.70;;;2.55;;
16478;SDS011;8350;52.316;10.530;2023-09-30T10:24:48;9.73;;;3.20;;
16478;SDS011;8350;52.316;10.530;2023-09-30T10:27:32;7.20;;;3.08;;
16478;SDS011;8350;52.316;10.530;2023-09-30T10:30:11;4.72;;;2.00;;
16478;SDS011;8350;52.316;10.530;2023-09-30T10:35:42;8.38;;;2.65;;
16478;SDS011;8350;52.316;10.530;2023-09-30T10:41:06;8.43;;;2.95;;
16478;SDS011;8350;52.316;10.530;2023-09-30T10:43:34;6.50;;;2.88;;
16478;SDS011;8350;52.316;10.530;2023-09-30T10:46:04;6.03;;;2.50;;
16478;SDS011;8350;52.316;10.530;2023-09-30T10:51:42;7.40;;;2.60;;
16478;SDS011;8350;52.316;10.530;2023-09-30T10:54:10;7.93;;;2.60;;
16478;SDS011;8350;52.316;10.530;2023-09-30T10:56:39;9.73;;;2.42;;
16478;SDS011;8350;52.316;10.530;2023-09-30T10:59:06;6.40;;;2.55;;
16478;SDS011;8350;52.316;10.530;2023-09-30T11:01:36;6.65;;;2.50;;
16478;SDS011;8350;52.316;10.530;2023-09-30T11:04:03;9.50;;;2.67;;
16478;SDS011;8350;52.316;10.530;2023-09-30T11:06:32;6.05;;;2.95;;
16478;SDS011;8350;52.316;10.530;2023-09-30T11:09:01;9.75;;;2.90;;
16478;SDS011;8350;52.316;10.530;2023-09-30T11:11:35;8.23;;;2.75;;
16478;SDS011;8350;52.316;10.530;2023-09-30T11:14:03;6.97;;;2.50;;
16478;SDS011;8350;52.316;10.530;2023-09-30T11:16:41;8.90;;;2.30;;
16478;SDS011;8350;52.316;10.530;2023-09-30T11:19:09;8.85;;;2.97;;
16478;SDS011;8350;52.316;10.530;2023-09-30T11:21:36;6.97;;;2.45;;
16478;SDS011;8350;52.316;10.530;2023-09-30T11:24:04;6.28;;;2.42;;
16478;SDS011;8350;52.316;10.530;2023-09-30T11:26:32;5.40;;;2.15;;
16478;SDS011;8350;52.316;10.530;2023-09-30T11:29:05;5.22;;;2.22;;
16478;SDS011;8350;52.316;10.530;2023-09-30T11:31:32;4.15;;;2.03;;
16478;SDS011;8350;52.316;10.530;2023-09-30T11:34:01;9.02;;;2.17;;
16478;SDS011;8350;52.316;10.530;2023-09-30T11:36:30;6.53;;;2.40;;
16478;SDS011;8350;52.316;10.530;2023-09-30T11:38:57;5.40;;;2.28;;
16478;SDS011;8350;52.316;10.530;2023-09-30T11:41:32;5.15;;;2.03;;
16478;SDS011;8350;52.316;10.530;2023-09-30T11:44:00;3.88;;;1.50;;
16478;SDS011;8350;52.316;10.530;2023-09-30T11:46:30;6.68;;;2.15;;
16478;SDS011;8350;52.316;10.530;2023-09-30T11:48:59;6.68;;;2.15;;
16478;SDS011;8350;52.316;10.530;2023-09-30T11:51:30;5.35;;;1.90;;
16478;SDS011;8350;52.316;10.530;2023-09-30T11:54:08;5.75;;;2.10;;
16478;SDS011;8350;52.316;10.530;2023-09-30T11:56:36;5.38;;;1.75;;
16478;SDS011;8350;52.316;10.530;2023-09-30T11:59:03;3.33;;;1.52;;
16478;SDS011;8350;52.316;10.530;2023-09-30T12:01:30;3.72;;;2.13;;
16478;SDS011;8350;52.316;10.530;2023-09-30T12:03:58;2.70;;;1.88;;
16478;SDS011;8350;52.316;10.530;2023-09-30T12:06:27;5.93;;;1.73;;
16478;SDS011;8350;52.316;10.530;2023-09-30T12:08:54;3.58;;;1.88;;
16478;SDS011;8350;52.316;10.530;2023-09-30T12:11:22;5.75;;;1.92;;
16478;SDS011;8350;52.316;10.530;2023-09-30T12:13:51;5.45;;;1.58;;
16478;SDS011;8350;52.316;10.530;2023-09-30T12:16:18;4.07;;;1.30;;
16478;SDS011;8350;52.316;10.530;2023-09-30T12:18:46;4.40;;;1.75;;
16478;SDS011;8350;52.316;10.530;2023-09-30T12:21:13;2.83;;;1.23;;
16478;SDS011;8350;52.316;10.530;2023-09-30T12:23:58;4.20;;;1.92;;
16478;SDS011;8350;52.316;10.530;2023-09-30T12:26:25;5.07;;;2.05;;
16478;SDS011;8350;52.316;10.530;2023-09-30T12:28:53;5.75;;;2.00;;
16478;SDS011;8350;52.316;10.530;2023-09-30T12:31:21;4.97;;;1.73;;
16478;SDS011;8350;52.316;10.530;2023-09-30T12:33:48;4.70;;;2.05;;
16478;SDS011;8350;52.316;10.530;2023-09-30T12:36:17;5.47;;;2.00;;
16478;SDS011;8350;52.316;10.530;2023-09-30T12:38:48;3.50;;;1.38;;
16478;SDS011;8350;52.316;10.530;2023-09-30T12:41:15;3.95;;;1.67;;
16478;SDS011;8350;52.316;10.530;2023-09-30T12:43:47;5.28;;;2.17;;
16478;SDS011;8350;52.316;10.530;2023-09-30T12:46:14;5.40;;;1.50;;
16478;SDS011;8350;52.316;10.530;2023-09-30T12:48:43;7.15;;;2.10;;
16478;SDS011;8350;52.316;10.530;2023-09-30T12:51:10;6.68;;;2.00;;
16478;SDS011;8350;52.316;10.530;2023-09-30T12:53:37;5.18;;;1.63;;
16478;SDS011;8350;52.316;10.530;2023-09-30T12:56:06;5.25;;;1.70;;
16478;SDS011;8350;52.316;10.530;2023-09-30T12:58:33;2.55;;;1.30;;
16478;SDS011;8350;52.316;10.530;2023-09-30T13:01:00;2.95;;;1.33;;
16478;SDS011;8350;52.316;10.530;2023-09-30T13:03:27;4.57;;;1.65;;
16478;SDS011;8350;52.316;10.530;2023-09-30T13:05:54;5.60;;;1.52;;
16478;SDS011;8350;52.316;10.530;2023-09-30T13:08:24;4.35;;;1.70;;
16478;SDS011;8350;52.316;10.530;2023-09-30T13:10:51;4.15;;;1.85;;
16478;SDS011;8350;52.316;10.530;2023-09-30T13:13:20;2.25;;;1.45;;
16478;SDS011;8350;52.316;10.530;2023-09-30T13:15:47;2.78;;;1.20;;
16478;SDS011;8350;52.316;10.530;2023-09-30T13:18:14;4.20;;;1.65;;
16478;SDS011;8350;52.316;10.530;2023-09-30T13:20:41;4.70;;;1.75;;
16478;SDS011;8350;52.316;10.530;2023-09-30T13:23:08;5.40;;;1.67;;
16478;SDS011;8350;52.316;10.530;2023-09-30T13:25:35;6.15;;;1.90;;
16478;SDS011;8350;52.316;10.530;2023-09-30T13:28:02;7.30;;;1.65;;
16478;SDS011;8350;52.316;10.530;2023-09-30T13:30:30;2.55;;;1.63;;
16478;SDS011;8350;52.316;10.530;2023-09-30T13:32:57;2.67;;;1.45;;
16478;SDS011;8350;52.316;10.530;2023-09-30T13:35:24;3.92;;;1.45;;
16478;SDS011;8350;52.316;10.530;2023-09-30T13:37:51;5.07;;;1.80;;
16478;SDS011;8350;52.316;10.530;2023-09-30T13:40:18;4.13;;;1.73;;
16478;SDS011;8350;52.316;10.530;2023-09-30T13:42:48;4.30;;;1.40;;
16478;SDS011;8350;52.316;10.530;2023-09-30T13:45:15;5.60;;;2.00;;
16478;SDS011;8350;52.316;10.530;2023-09-30T13:47:44;4.10;;;1.40;;
16478;SDS011;8350;52.316;10.530;2023-09-30T13:50:11;5.28;;;1.88;;
16478;SDS011;8350;52.316;10.530;2023-09-30T13:52:38;3.90;;;1.63;;
16478;SDS011;8350;52.316;10.530;2023-09-30T13:55:05;4.38;;;1.40;;
16478;SDS011;8350;52.316;10.530;2023-09-30T13:57:33;3.83;;;1.70;;
16478;SDS011;8350;52.316;10.530;2023-09-30T14:00:04;4.70;;;1.60;;
16478;SDS011;8350;52.316;10.530;2023-09-30T14:02:35;3.10;;;1.50;;
16478;SDS011;8350;52.316;10.530;2023-09-30T14:05:05;4.20;;;1.70;;
16478;SDS011;8350;52.316;10.530;2023-09-30T14:07:33;4.82;;;1.70;;
16478;SDS011;8350;52.316;10.530;2023-09-30T14:10:00;4.72;;;1.83;;
16478;SDS011;8350;52.316;10.530;2023-09-30T14:12:28;2.85;;;1.58;;
16478;SDS011;8350;52.316;10.530;2023-09-30T14:14:56;3.63;;;1.50;;
16478;SDS011;8350;52.316;10.530;2023-09-30T14:17:23;3.10;;;1.75;;
16478;SDS011;8350;52.316;10.530;2023-09-30T14:19:50;5.05;;;1.92;;
16478;SDS011;8350;52.316;10.530;2023-09-30T14:22:19;2.42;;;1.58;;
16478;SDS011;8350;52.316;10.530;2023-09-30T14:24:46;2.95;;;1.55;;
16478;SDS011;8350;52.316;10.530;2023-09-30T14:27:13;4.10;;;1.42;;
16478;SDS011;8350;52.316;10.530;2023-09-30T14:29:40;3.95;;;1.55;;
16478;SDS011;8350;52.316;10.530;2023-09-30T14:32:08;3.72;;;1.63;;
16478;SDS011;8350;52.316;10.530;2023-09-30T14:34:38;2.92;;;1.60;;
16478;SDS011;8350;52.316;10.530;2023-09-30T14:37:05;3.38;;;1.40;;
16478;SDS011;8350;52.316;10.530;2023-09-30T14:39:33;5.63;;;1.80;;
16478;SDS011;8350;52.316;10.530;2023-09-30T14:42:00;4.82;;;1.90;;
16478;SDS011;8350;52.316;10.530;2023-09-30T14:44:27;3.90;;;1.77;;
16478;SDS011;8350;52.316;10.530;2023-09-30T14:46:54;3.03;;;1.60;;
16478;SDS011;8350;52.316;10.530;2023-09-30T14:49:22;4.40;;;1.42;;
16478;SDS011;8350;52.316;10.530;2023-09-30T14:51:49;7.35;;;2.03;;
16478;SDS011;8350;52.316;10.530;2023-09-30T14:54:17;5.80;;;1.58;;
16478;SDS011;8350;52.316;10.530;2023-09-30T14:56:45;3.67;;;1.60;;
16478;SDS011;8350;52.316;10.530;2023-09-30T14:59:12;2.95;;;1.60;;
16478;SDS011;8350;52.316;10.530;2023-09-30T15:01:41;2.75;;;1.60;;
16478;SDS011;8350;52.316;10.530;2023-09-30T15:04:08;4.43;;;1.85;;